createdAt,value
2022-12-15T00:00:55.571Z,0.00
2022-12-15T00:01:55.479Z,0.00
2022-12-15T00:02:55.584Z,0.00
2022-12-15T00:03:55.422Z,0.00
2022-12-15T00:04:55.378Z,0.00
2022-12-15T00:05:55.347Z,0.00
2022-12-15T00:06:55.353Z,0.00
2022-12-15T00:07:55.286Z,0.00
2022-12-15T00:08:55.256Z,0.00
2022-12-15T00:09:55.225Z,0.00
2022-12-15T00:10:55.199Z,0.00
2022-12-15T00:11:55.167Z,0.00
2022-12-15T00:12:55.147Z,0.00
2022-12-15T00:13:55.111Z,0.00
2022-12-15T00:14:55.086Z,0.00
2022-12-15T00:15:55.129Z,0.00
2022-12-15T00:16:55.039Z,0.00
2022-12-15T00:17:55.022Z,0.00
2022-12-15T00:18:54.974Z,0.00
2022-12-15T00:19:54.945Z,0.00
2022-12-15T00:20:54.917Z,0.00
2022-12-15T00:21:54.883Z,0.00
2022-12-15T00:22:54.866Z,0.00
2022-12-15T00:23:54.825Z,0.00
2022-12-15T00:24:54.797Z,0.00
2022-12-15T00:25:54.771Z,0.00
2022-12-15T00:26:54.746Z,0.00
2022-12-15T00:27:54.715Z,0.00
2022-12-15T00:28:54.686Z,0.00
2022-12-15T00:29:54.660Z,0.00
2022-12-15T00:31:00.433Z,0.00
2022-12-15T00:31:54.628Z,0.00
2022-12-15T00:32:54.570Z,0.00
2022-12-15T00:33:54.566Z,0.00
2022-12-15T00:34:54.514Z,0.00
2022-12-15T00:35:54.478Z,0.00
2022-12-15T00:36:54.455Z,0.00
2022-12-15T00:37:54.429Z,0.00
2022-12-15T00:38:58.037Z,0.00
2022-12-15T00:39:54.373Z,0.00
2022-12-15T00:40:54.339Z,0.00
2022-12-15T00:41:54.310Z,0.00
2022-12-15T00:42:54.284Z,0.00
2022-12-15T00:43:54.251Z,0.00
2022-12-15T00:44:54.224Z,0.00
2022-12-15T00:45:54.192Z,0.00
2022-12-15T00:46:54.237Z,0.00
2022-12-15T00:47:54.138Z,0.00
2022-12-15T00:48:54.118Z,0.00
2022-12-15T00:49:54.102Z,0.00
2022-12-15T00:50:54.062Z,0.00
2022-12-15T00:51:54.023Z,0.00
2022-12-15T00:52:53.988Z,0.00
2022-12-15T00:53:53.964Z,0.00
2022-12-15T00:54:53.940Z,0.00
2022-12-15T00:55:53.905Z,0.00
2022-12-15T00:56:53.879Z,0.00
2022-12-15T00:57:53.848Z,0.00
2022-12-15T00:58:53.823Z,0.00
2022-12-15T00:59:53.796Z,0.00
2022-12-15T01:00:53.763Z,0.00
2022-12-15T01:01:53.957Z,0.00
2022-12-15T01:02:53.904Z,0.00
2022-12-15T01:03:53.952Z,0.00
2022-12-15T01:04:53.651Z,0.00
2022-12-15T01:05:53.668Z,0.00
2022-12-15T01:06:53.587Z,0.00
2022-12-15T01:07:53.563Z,0.00
2022-12-15T01:08:53.539Z,0.00
2022-12-15T01:09:53.502Z,0.00
2022-12-15T01:10:53.473Z,0.00
2022-12-15T01:11:53.443Z,0.00
2022-12-15T01:12:53.418Z,0.00
2022-12-15T01:13:53.386Z,0.00
2022-12-15T01:14:53.361Z,0.00
2022-12-15T01:15:53.399Z,0.00
2022-12-15T01:16:53.303Z,0.00
2022-12-15T01:17:53.273Z,0.00
2022-12-15T01:18:53.240Z,0.00
2022-12-15T01:19:53.214Z,0.00
2022-12-15T01:20:53.182Z,0.00
2022-12-15T01:21:53.175Z,0.00
2022-12-15T01:22:53.137Z,0.00
2022-12-15T01:23:53.092Z,0.00
2022-12-15T01:24:53.073Z,0.00
2022-12-15T01:25:53.039Z,0.00
2022-12-15T01:26:53.011Z,0.00
2022-12-15T01:27:52.986Z,0.00
2022-12-15T01:28:52.953Z,0.00
2022-12-15T01:29:52.922Z,0.00
2022-12-15T01:30:52.901Z,0.00
2022-12-15T01:31:52.952Z,0.00
2022-12-15T01:32:52.839Z,0.00
2022-12-15T01:33:52.804Z,0.00
2022-12-15T01:34:52.777Z,0.00
2022-12-15T01:35:52.746Z,0.00
2022-12-15T01:36:52.730Z,0.00
2022-12-15T01:37:52.746Z,0.00
2022-12-15T01:38:54.533Z,0.00
2022-12-15T01:39:52.631Z,0.00
2022-12-15T01:40:52.609Z,0.00
2022-12-15T01:41:52.577Z,0.00
2022-12-15T01:42:52.554Z,0.00
2022-12-15T01:43:52.520Z,0.00
2022-12-15T01:44:52.488Z,0.00
2022-12-15T01:45:52.457Z,0.00
2022-12-15T01:46:52.583Z,0.00
2022-12-15T01:47:52.398Z,0.00
2022-12-15T01:48:52.376Z,0.00
2022-12-15T01:49:52.345Z,0.00
2022-12-15T01:50:52.330Z,0.00
2022-12-15T01:51:52.284Z,0.00
2022-12-15T01:52:52.261Z,0.00
2022-12-15T01:53:52.258Z,0.00
2022-12-15T01:54:52.205Z,0.00
2022-12-15T01:55:52.174Z,0.00
2022-12-15T01:56:52.141Z,0.00
2022-12-15T01:57:52.112Z,0.00
2022-12-15T01:58:52.090Z,0.00
2022-12-15T01:59:52.053Z,0.00
2022-12-15T02:00:52.126Z,0.00
2022-12-15T02:01:52.168Z,0.00
2022-12-15T02:02:52.165Z,0.00
2022-12-15T02:03:51.935Z,0.00
2022-12-15T02:04:51.910Z,0.00
2022-12-15T02:05:51.879Z,0.00
2022-12-15T02:06:51.850Z,0.00
2022-12-15T02:07:51.817Z,0.00
2022-12-15T02:08:51.796Z,0.00
2022-12-15T02:09:51.785Z,0.00
2022-12-15T02:10:51.736Z,0.00
2022-12-15T02:11:51.700Z,0.00
2022-12-15T02:12:51.675Z,0.00
2022-12-15T02:13:51.646Z,0.00
2022-12-15T02:14:51.618Z,0.00
2022-12-15T02:15:51.656Z,0.00
2022-12-15T02:16:51.561Z,0.00
2022-12-15T02:17:51.532Z,0.00
2022-12-15T02:18:51.502Z,0.00
2022-12-15T02:19:51.479Z,0.00
2022-12-15T02:20:51.442Z,0.00
2022-12-15T02:21:51.413Z,0.00
2022-12-15T02:22:51.388Z,0.00
2022-12-15T02:23:51.356Z,0.00
2022-12-15T02:24:51.334Z,0.00
2022-12-15T02:25:51.336Z,0.00
2022-12-15T02:26:51.271Z,0.00
2022-12-15T02:27:51.238Z,0.00
2022-12-15T02:28:51.213Z,0.00
2022-12-15T02:29:51.181Z,0.00
2022-12-15T02:30:51.156Z,0.00
2022-12-15T02:31:51.208Z,0.00
2022-12-15T02:32:51.100Z,0.00
2022-12-15T02:33:51.063Z,0.00
2022-12-15T02:34:51.036Z,0.00
2022-12-15T02:35:51.004Z,0.00
2022-12-15T02:36:50.982Z,0.00
2022-12-15T02:37:50.950Z,0.00
2022-12-15T02:38:50.926Z,0.00
2022-12-15T02:39:50.891Z,0.00
2022-12-15T02:40:50.864Z,0.00
2022-12-15T02:41:50.854Z,0.00
2022-12-15T02:42:50.812Z,0.00
2022-12-15T02:43:50.774Z,0.00
2022-12-15T02:44:50.748Z,0.00
2022-12-15T02:45:50.769Z,0.00
2022-12-15T02:46:50.687Z,0.00
2022-12-15T02:47:50.656Z,0.00
2022-12-15T02:48:50.637Z,0.00
2022-12-15T02:49:50.600Z,0.00
2022-12-15T02:50:50.570Z,0.00
2022-12-15T02:51:50.542Z,0.00
2022-12-15T02:52:50.517Z,0.00
2022-12-15T02:53:50.487Z,0.00
2022-12-15T02:54:50.464Z,0.00
2022-12-15T02:55:50.573Z,0.00
2022-12-15T02:56:50.402Z,0.00
2022-12-15T02:57:50.483Z,0.00
2022-12-15T02:58:50.343Z,0.00
2022-12-15T02:59:50.313Z,0.00
2022-12-15T03:00:50.342Z,0.00
2022-12-15T03:01:50.455Z,0.00
2022-12-15T03:02:50.383Z,0.00
2022-12-15T03:03:50.194Z,0.00
2022-12-15T03:04:50.168Z,0.00
2022-12-15T03:05:50.134Z,0.00
2022-12-15T03:06:50.112Z,0.00
2022-12-15T03:07:50.076Z,0.00
2022-12-15T03:08:50.052Z,0.00
2022-12-15T03:09:50.016Z,0.00
2022-12-15T03:10:49.991Z,0.00
2022-12-15T03:11:49.958Z,0.00
2022-12-15T03:12:49.933Z,0.00
2022-12-15T03:13:49.977Z,0.00
2022-12-15T03:14:49.872Z,0.00
2022-12-15T03:15:49.845Z,0.00
2022-12-15T03:16:49.937Z,0.00
2022-12-15T03:17:49.783Z,0.00
2022-12-15T03:18:49.758Z,0.00
2022-12-15T03:19:49.849Z,0.00
2022-12-15T03:20:49.700Z,0.00
2022-12-15T03:21:49.666Z,0.00
2022-12-15T03:22:49.644Z,0.00
2022-12-15T03:23:49.611Z,0.00
2022-12-15T03:24:49.581Z,0.00
2022-12-15T03:25:49.859Z,0.00
2022-12-15T03:26:49.525Z,0.00
2022-12-15T03:27:49.493Z,0.00
2022-12-15T03:28:49.468Z,0.00
2022-12-15T03:29:49.564Z,0.00
2022-12-15T03:30:50.492Z,0.00
2022-12-15T03:31:49.909Z,0.00
2022-12-15T03:32:49.345Z,0.00
2022-12-15T03:33:49.316Z,0.00
2022-12-15T03:34:49.287Z,0.00
2022-12-15T03:35:49.264Z,0.00
2022-12-15T03:36:49.228Z,0.00
2022-12-15T03:37:49.696Z,0.00
2022-12-15T03:38:49.169Z,0.00
2022-12-15T03:39:49.147Z,0.00
2022-12-15T03:40:49.111Z,0.00
2022-12-15T03:41:49.085Z,0.00
2022-12-15T03:42:49.057Z,0.00
2022-12-15T03:43:49.772Z,0.00
2022-12-15T03:44:48.992Z,0.00
2022-12-15T03:45:49.096Z,0.00
2022-12-15T03:46:48.938Z,0.00
2022-12-15T03:47:48.909Z,0.00
2022-12-15T03:48:48.883Z,0.00
2022-12-15T03:49:48.847Z,0.00
2022-12-15T03:50:48.851Z,0.00
2022-12-15T03:51:48.798Z,0.00
2022-12-15T03:52:48.762Z,0.00
2022-12-15T03:53:48.733Z,0.00
2022-12-15T03:54:48.701Z,0.00
2022-12-15T03:55:48.673Z,0.00
2022-12-15T03:56:48.638Z,0.00
2022-12-15T03:57:48.614Z,0.00
2022-12-15T03:58:48.615Z,0.00
2022-12-15T03:59:48.554Z,0.00
2022-12-15T04:00:48.527Z,0.00
2022-12-15T04:01:48.650Z,0.00
2022-12-15T04:02:50.188Z,0.00
2022-12-15T04:03:48.545Z,0.00
2022-12-15T04:04:48.409Z,0.00
2022-12-15T04:05:48.388Z,0.00
2022-12-15T04:06:48.349Z,0.00
2022-12-15T04:07:48.326Z,0.00
2022-12-15T04:08:49.716Z,0.00
2022-12-15T04:09:48.266Z,0.00
2022-12-15T04:10:48.237Z,0.00
2022-12-15T04:11:48.211Z,0.00
2022-12-15T04:12:48.180Z,0.00
2022-12-15T04:13:48.144Z,0.00
2022-12-15T04:14:48.120Z,0.00
2022-12-15T04:15:48.094Z,0.00
2022-12-15T04:16:48.090Z,0.00
2022-12-15T04:17:48.054Z,0.00
2022-12-15T04:18:47.996Z,0.00
2022-12-15T04:19:47.974Z,0.00
2022-12-15T04:20:50.243Z,0.00
2022-12-15T04:21:47.915Z,0.00
2022-12-15T04:22:47.884Z,0.00
2022-12-15T04:23:47.856Z,0.00
2022-12-15T04:24:47.824Z,0.00
2022-12-15T04:25:47.795Z,0.00
2022-12-15T04:26:47.767Z,0.00
2022-12-15T04:27:47.736Z,0.00
2022-12-15T04:28:47.708Z,0.00
2022-12-15T04:29:47.680Z,0.00
2022-12-15T04:30:47.703Z,0.00
2022-12-15T04:31:47.621Z,0.00
2022-12-15T04:32:49.787Z,0.00
2022-12-15T04:33:47.587Z,0.00
2022-12-15T04:34:47.534Z,0.00
2022-12-15T04:35:49.933Z,0.00
2022-12-15T04:36:47.481Z,0.00
2022-12-15T04:37:47.447Z,0.00
2022-12-15T04:38:50.325Z,0.00
2022-12-15T04:39:47.391Z,0.00
2022-12-15T04:40:47.363Z,0.00
2022-12-15T04:41:47.331Z,0.00
2022-12-15T04:42:47.299Z,0.00
2022-12-15T04:43:47.276Z,0.00
2022-12-15T04:44:50.115Z,0.00
2022-12-15T04:45:47.243Z,0.00
2022-12-15T04:46:47.185Z,0.00
2022-12-15T04:47:47.158Z,0.00
2022-12-15T04:48:47.123Z,0.00
2022-12-15T04:49:47.119Z,0.00
2022-12-15T04:50:47.069Z,0.00
2022-12-15T04:51:47.046Z,0.00
2022-12-15T04:52:47.004Z,0.00
2022-12-15T04:53:46.977Z,0.00
2022-12-15T04:54:46.949Z,0.00
2022-12-15T04:55:46.921Z,0.00
2022-12-15T04:56:46.887Z,0.00
2022-12-15T04:57:46.864Z,0.00
2022-12-15T04:58:46.834Z,0.00
2022-12-15T04:59:46.808Z,0.00
2022-12-15T05:00:46.772Z,0.00
2022-12-15T05:01:46.927Z,0.00
2022-12-15T05:02:46.754Z,0.00
2022-12-15T05:03:46.690Z,0.00
2022-12-15T05:04:46.720Z,0.00
2022-12-15T05:05:46.654Z,0.00
2022-12-15T05:06:46.597Z,0.00
2022-12-15T05:07:46.567Z,0.00
2022-12-15T05:08:46.537Z,0.00
2022-12-15T05:09:46.506Z,0.00
2022-12-15T05:10:46.476Z,0.00
2022-12-15T05:11:46.454Z,0.00
2022-12-15T05:12:46.417Z,0.00
2022-12-15T05:13:46.396Z,0.00
2022-12-15T05:14:46.358Z,0.00
2022-12-15T05:15:46.405Z,0.00
2022-12-15T05:16:46.366Z,0.00
2022-12-15T05:17:46.325Z,0.00
2022-12-15T05:18:46.242Z,0.00
2022-12-15T05:19:46.220Z,0.00
2022-12-15T05:20:46.183Z,0.00
2022-12-15T05:21:46.191Z,0.00
2022-12-15T05:22:46.124Z,0.00
2022-12-15T05:23:46.100Z,0.00
2022-12-15T05:24:46.068Z,0.00
2022-12-15T05:25:46.041Z,0.00
2022-12-15T05:26:50.794Z,0.00
2022-12-15T05:27:45.984Z,0.00
2022-12-15T05:28:45.951Z,0.00
2022-12-15T05:29:45.922Z,0.00
2022-12-15T05:30:45.932Z,0.00
2022-12-15T05:31:45.863Z,0.00
2022-12-15T05:32:45.830Z,0.00
2022-12-15T05:33:45.811Z,0.00
2022-12-15T05:34:45.774Z,0.00
2022-12-15T05:35:45.745Z,0.00
2022-12-15T05:36:45.711Z,0.00
2022-12-15T05:37:45.713Z,0.00
2022-12-15T05:38:45.657Z,0.00
2022-12-15T05:39:45.634Z,0.00
2022-12-15T05:40:45.594Z,0.00
2022-12-15T05:41:45.571Z,0.00
2022-12-15T05:42:49.898Z,0.00
2022-12-15T05:43:45.514Z,0.00
2022-12-15T05:44:45.482Z,0.00
2022-12-15T05:45:45.451Z,0.00
2022-12-15T05:46:45.510Z,0.00
2022-12-15T05:47:45.395Z,0.00
2022-12-15T05:48:45.364Z,0.00
2022-12-15T05:49:45.338Z,0.00
2022-12-15T05:50:45.303Z,0.00
2022-12-15T05:51:45.276Z,0.00
2022-12-15T05:52:49.361Z,0.00
2022-12-15T05:53:45.250Z,0.00
2022-12-15T05:54:45.190Z,0.00
2022-12-15T05:55:45.159Z,0.00
2022-12-15T05:56:45.132Z,0.00
2022-12-15T05:57:45.097Z,0.00
2022-12-15T05:58:45.831Z,0.00
2022-12-15T05:59:45.041Z,0.00
2022-12-15T06:00:45.012Z,0.00
2022-12-15T06:01:45.149Z,0.00
2022-12-15T06:02:44.997Z,0.00
2022-12-15T06:03:44.925Z,0.00
2022-12-15T06:04:44.951Z,0.00
2022-12-15T06:05:44.864Z,0.00
2022-12-15T06:06:44.837Z,0.00
2022-12-15T06:07:44.823Z,0.00
2022-12-15T06:08:44.772Z,0.00
2022-12-15T06:09:44.774Z,0.00
2022-12-15T06:10:44.718Z,0.00
2022-12-15T06:11:44.696Z,0.00
2022-12-15T06:12:44.658Z,0.00
2022-12-15T06:13:44.633Z,0.00
2022-12-15T06:14:44.595Z,0.00
2022-12-15T06:15:44.599Z,0.00
2022-12-15T06:16:50.153Z,0.00
2022-12-15T06:17:44.510Z,0.00
2022-12-15T06:18:44.482Z,0.00
2022-12-15T06:19:44.455Z,0.00
2022-12-15T06:20:44.425Z,0.00
2022-12-15T06:21:44.402Z,0.00
2022-12-15T06:22:49.683Z,0.00
2022-12-15T06:23:44.344Z,0.00
2022-12-15T06:24:44.305Z,0.00
2022-12-15T06:25:44.297Z,0.00
2022-12-15T06:26:44.248Z,0.00
2022-12-15T06:27:44.222Z,0.00
2022-12-15T06:28:44.193Z,0.00
2022-12-15T06:29:44.163Z,0.00
2022-12-15T06:30:44.142Z,0.00
2022-12-15T06:31:44.179Z,0.00
2022-12-15T06:32:44.074Z,0.00
2022-12-15T06:33:44.046Z,0.00
2022-12-15T06:34:44.012Z,0.00
2022-12-15T06:35:43.980Z,0.00
2022-12-15T06:36:43.949Z,0.00
2022-12-15T06:37:43.923Z,0.00
2022-12-15T06:38:43.894Z,0.00
2022-12-15T06:39:43.881Z,0.00
2022-12-15T06:40:43.831Z,0.00
2022-12-15T06:41:43.833Z,0.00
2022-12-15T06:42:43.777Z,0.00
2022-12-15T06:43:43.751Z,0.00
2022-12-15T06:44:43.717Z,0.00
2022-12-15T06:45:43.694Z,0.00
2022-12-15T06:46:43.789Z,0.00
2022-12-15T06:47:43.631Z,0.00
2022-12-15T06:48:43.600Z,0.00
2022-12-15T06:49:43.573Z,0.00
2022-12-15T06:50:43.541Z,0.00
2022-12-15T06:51:43.516Z,0.00
2022-12-15T06:52:43.481Z,0.00
2022-12-15T06:53:43.451Z,0.00
2022-12-15T06:54:43.424Z,0.00
2022-12-15T06:55:43.402Z,0.00
2022-12-15T06:56:43.363Z,0.00
2022-12-15T06:57:43.359Z,0.00
2022-12-15T06:58:43.305Z,0.00
2022-12-15T06:59:43.278Z,0.00
2022-12-15T07:00:43.245Z,0.00
2022-12-15T07:01:43.512Z,0.00
2022-12-15T07:02:43.385Z,0.00
2022-12-15T07:03:43.374Z,0.00
2022-12-15T07:04:43.131Z,0.00
2022-12-15T07:05:43.104Z,0.00
2022-12-15T07:06:43.070Z,0.00
2022-12-15T07:07:43.118Z,0.00
2022-12-15T07:08:43.011Z,0.00
2022-12-15T07:09:42.987Z,0.00
2022-12-15T07:10:42.955Z,0.00
2022-12-15T07:11:42.927Z,0.00
2022-12-15T07:12:42.892Z,0.00
2022-12-15T07:13:42.897Z,0.00
2022-12-15T07:14:42.834Z,0.00
2022-12-15T07:15:42.935Z,0.00
2022-12-15T07:16:42.935Z,0.00
2022-12-15T07:17:42.752Z,0.00
2022-12-15T07:18:42.720Z,0.00
2022-12-15T07:19:42.691Z,0.00
2022-12-15T07:20:42.667Z,0.00
2022-12-15T07:21:42.657Z,0.00
2022-12-15T07:22:42.603Z,0.00
2022-12-15T07:23:58.650Z,0.00
2022-12-15T07:24:42.550Z,5.63
2022-12-15T07:25:42.521Z,5.63
2022-12-15T07:26:42.484Z,5.63
2022-12-15T07:27:42.458Z,5.63
2022-12-15T07:28:42.424Z,5.63
2022-12-15T07:29:42.415Z,5.63
2022-12-15T07:30:42.366Z,5.63
2022-12-15T07:31:42.450Z,5.63
2022-12-15T07:32:42.303Z,5.63
2022-12-15T07:33:42.281Z,5.63
2022-12-15T07:34:42.255Z,5.63
2022-12-15T07:35:42.217Z,5.63
2022-12-15T07:36:45.757Z,11.25
2022-12-15T07:37:42.168Z,11.25
2022-12-15T07:38:42.132Z,11.25
2022-12-15T07:39:42.102Z,11.25
2022-12-15T07:40:42.078Z,11.25
2022-12-15T07:41:42.047Z,11.25
2022-12-15T07:42:42.017Z,16.88
2022-12-15T07:43:41.985Z,16.88
2022-12-15T07:44:41.956Z,16.88
2022-12-15T07:45:45.544Z,16.88
2022-12-15T07:46:41.988Z,16.88
2022-12-15T07:47:41.874Z,16.88
2022-12-15T07:48:41.840Z,16.88
2022-12-15T07:49:41.814Z,22.50
2022-12-15T07:50:41.780Z,22.50
2022-12-15T07:51:41.757Z,22.50
2022-12-15T07:52:41.735Z,22.50
2022-12-15T07:53:41.694Z,22.50
2022-12-15T07:54:41.665Z,22.50
2022-12-15T07:56:05.629Z,28.13
2022-12-15T07:56:41.609Z,28.13
2022-12-15T07:57:41.576Z,28.13
2022-12-15T07:58:41.548Z,28.13
2022-12-15T07:59:41.519Z,28.13
2022-12-15T08:00:46.868Z,33.75
2022-12-15T08:01:41.639Z,33.75
2022-12-15T08:02:41.614Z,33.75
2022-12-15T08:03:41.829Z,33.75
2022-12-15T08:04:41.372Z,33.75
2022-12-15T08:05:41.345Z,39.38
2022-12-15T08:06:41.314Z,39.38
2022-12-15T08:07:41.287Z,39.38
2022-12-15T08:08:41.259Z,39.38
2022-12-15T08:09:41.229Z,39.38
2022-12-15T08:10:41.198Z,39.38
2022-12-15T08:11:41.170Z,39.38
2022-12-15T08:12:41.142Z,39.38
2022-12-15T08:14:41.079Z,45.00
2022-12-15T08:15:41.058Z,39.38
2022-12-15T08:16:41.133Z,45.00
2022-12-15T08:17:41.039Z,45.00
2022-12-15T08:18:40.966Z,61.88
2022-12-15T08:19:40.940Z,84.38
2022-12-15T08:20:40.911Z,78.75
2022-12-15T08:21:40.887Z,90.00
2022-12-15T08:22:40.863Z,78.75
2022-12-15T08:23:40.830Z,84.38
2022-12-15T08:24:40.795Z,118.13
2022-12-15T08:25:40.763Z,118.13
2022-12-15T08:26:40.740Z,135.00
2022-12-15T08:27:40.716Z,146.25
2022-12-15T08:28:40.691Z,135.00
2022-12-15T08:29:56.106Z,118.13
2022-12-15T08:30:40.629Z,129.38
2022-12-15T08:31:40.635Z,174.38
2022-12-15T08:32:40.569Z,168.75
2022-12-15T08:33:40.572Z,151.88
2022-12-15T08:34:40.516Z,202.50
2022-12-15T08:35:56.245Z,247.50
2022-12-15T08:36:40.462Z,286.88
2022-12-15T08:37:40.437Z,315.00
2022-12-15T08:38:40.407Z,343.13
2022-12-15T08:39:40.395Z,286.88
2022-12-15T08:40:40.359Z,253.13
2022-12-15T08:41:40.332Z,298.13
2022-12-15T08:42:40.306Z,275.63
2022-12-15T08:43:47.577Z,163.13
2022-12-15T08:44:40.255Z,191.25
2022-12-15T08:45:40.290Z,253.13
2022-12-15T08:46:40.209Z,230.63
2022-12-15T08:47:40.183Z,196.88
2022-12-15T08:48:40.157Z,208.13
2022-12-15T08:49:40.165Z,326.25
2022-12-15T08:50:40.110Z,410.63
2022-12-15T08:51:40.084Z,410.63
2022-12-15T08:52:40.061Z,421.88
2022-12-15T08:53:40.085Z,450.00
2022-12-15T08:54:40.015Z,466.88
2022-12-15T08:55:39.993Z,405.00
2022-12-15T08:56:39.972Z,466.88
2022-12-15T08:57:39.948Z,466.88
2022-12-15T08:58:39.940Z,461.25
2022-12-15T08:59:39.908Z,478.13
2022-12-15T09:00:39.882Z,489.38
2022-12-15T09:01:40.082Z,500.63
2022-12-15T09:02:39.917Z,500.63
2022-12-15T09:03:39.824Z,489.38
2022-12-15T09:04:39.827Z,461.25
2022-12-15T09:05:39.804Z,472.50
2022-12-15T09:06:39.764Z,483.75
2022-12-15T09:07:39.743Z,450.00
2022-12-15T09:08:39.724Z,433.13
2022-12-15T09:09:39.702Z,455.63
2022-12-15T09:10:39.684Z,427.50
2022-12-15T09:11:39.666Z,298.13
2022-12-15T09:12:39.652Z,258.75
2022-12-15T09:13:39.624Z,247.50
2022-12-15T09:14:39.606Z,253.13
2022-12-15T09:16:08.370Z,258.75
2022-12-15T09:16:39.655Z,247.50
2022-12-15T09:17:39.551Z,264.38
2022-12-15T09:18:39.531Z,264.38
2022-12-15T09:19:39.508Z,270.00
2022-12-15T09:20:39.498Z,275.63
2022-12-15T09:21:39.495Z,286.88
2022-12-15T09:22:39.457Z,303.75
2022-12-15T09:23:39.434Z,320.63
2022-12-15T09:24:39.424Z,348.75
2022-12-15T09:25:39.399Z,365.63
2022-12-15T09:26:39.388Z,354.38
2022-12-15T09:27:39.368Z,433.13
2022-12-15T09:28:39.382Z,427.50
2022-12-15T09:29:39.332Z,427.50
2022-12-15T09:30:39.339Z,540.00
2022-12-15T09:31:39.298Z,506.25
2022-12-15T09:32:39.281Z,517.50
2022-12-15T09:33:39.259Z,506.25
2022-12-15T09:34:39.243Z,523.13
2022-12-15T09:35:39.231Z,466.88
2022-12-15T09:36:39.211Z,478.13
2022-12-15T09:37:39.313Z,275.63
2022-12-15T09:38:39.172Z,292.50
2022-12-15T09:39:39.155Z,545.63
2022-12-15T09:40:39.139Z,551.25
2022-12-15T09:41:39.123Z,573.75
2022-12-15T09:42:39.114Z,551.25
2022-12-15T09:43:44.806Z,545.63
2022-12-15T09:44:39.349Z,556.88
2022-12-15T09:45:39.088Z,528.75
2022-12-15T09:46:39.142Z,540.00
2022-12-15T09:47:39.027Z,534.38
2022-12-15T09:48:39.013Z,528.75
2022-12-15T09:49:38.996Z,545.63
2022-12-15T09:50:38.977Z,523.13
2022-12-15T09:51:38.965Z,523.13
2022-12-15T09:52:38.942Z,495.00
2022-12-15T09:53:55.819Z,489.38
2022-12-15T09:54:39.031Z,506.25
2022-12-15T09:55:38.892Z,495.00
2022-12-15T09:56:38.879Z,489.38
2022-12-15T09:57:38.855Z,483.75
2022-12-15T09:58:38.846Z,472.50
2022-12-15T09:59:38.827Z,461.25
2022-12-15T10:00:38.817Z,455.63
2022-12-15T10:01:38.822Z,450.00
2022-12-15T10:02:38.800Z,455.63
2022-12-15T10:03:39.460Z,450.00
2022-12-15T10:04:38.754Z,444.38
2022-12-15T10:06:06.934Z,438.75
2022-12-15T10:06:38.715Z,298.13
2022-12-15T10:07:38.701Z,309.38
2022-12-15T10:08:38.683Z,388.13
2022-12-15T10:09:38.686Z,416.25
2022-12-15T10:10:38.652Z,438.75
2022-12-15T10:11:38.639Z,438.75
2022-12-15T10:12:43.560Z,438.75
2022-12-15T10:13:38.605Z,433.13
2022-12-15T10:14:38.585Z,410.63
2022-12-15T10:15:38.600Z,416.25
2022-12-15T10:16:38.557Z,421.88
2022-12-15T10:17:38.543Z,399.38
2022-12-15T10:18:38.519Z,405.00
2022-12-15T10:19:38.520Z,405.00
2022-12-15T10:20:38.483Z,399.38
2022-12-15T10:21:38.475Z,405.00
2022-12-15T10:22:38.453Z,399.38
2022-12-15T10:23:38.479Z,393.75
2022-12-15T10:25:08.706Z,388.13
2022-12-15T10:25:38.445Z,405.00
2022-12-15T10:26:38.388Z,393.75
2022-12-15T10:27:38.373Z,382.50
2022-12-15T10:28:38.361Z,388.13
2022-12-15T10:29:38.358Z,376.88
2022-12-15T10:30:38.384Z,376.88
2022-12-15T10:31:38.305Z,376.88
2022-12-15T10:32:42.762Z,376.88
2022-12-15T10:33:38.276Z,371.25
2022-12-15T10:34:38.364Z,365.63
2022-12-15T10:35:38.242Z,365.63
2022-12-15T10:36:38.223Z,365.63
2022-12-15T10:37:38.209Z,360.00
2022-12-15T10:38:38.201Z,354.38
2022-12-15T10:39:38.176Z,348.75
2022-12-15T10:40:38.160Z,343.13
2022-12-15T10:41:38.169Z,343.13
2022-12-15T10:42:38.127Z,331.88
2022-12-15T10:43:38.231Z,343.13
2022-12-15T10:44:38.096Z,331.88
2022-12-15T10:45:38.075Z,326.25
2022-12-15T10:46:38.113Z,309.38
2022-12-15T10:47:38.040Z,315.00
2022-12-15T10:48:38.024Z,309.38
2022-12-15T10:49:38.005Z,309.38
2022-12-15T10:50:37.993Z,298.13
2022-12-15T10:51:37.973Z,286.88
2022-12-15T10:52:37.957Z,275.63
2022-12-15T10:53:37.939Z,270.00
2022-12-15T10:54:37.920Z,275.63
2022-12-15T10:55:37.907Z,270.00
2022-12-15T10:56:37.889Z,264.38
2022-12-15T10:57:37.901Z,253.13
2022-12-15T10:58:37.856Z,236.25
2022-12-15T10:59:37.843Z,241.88
2022-12-15T11:00:37.819Z,241.88
2022-12-15T11:01:37.886Z,230.63
2022-12-15T11:02:38.175Z,219.38
2022-12-15T11:03:38.683Z,219.38
2022-12-15T11:04:37.843Z,219.38
2022-12-15T11:05:37.726Z,219.38
2022-12-15T11:06:37.711Z,225.00
2022-12-15T11:07:37.698Z,230.63
2022-12-15T11:08:37.674Z,219.38
2022-12-15T11:09:37.662Z,208.13
2022-12-15T11:10:37.636Z,191.25
2022-12-15T11:11:37.619Z,185.63
2022-12-15T11:12:37.607Z,185.63
2022-12-15T11:13:38.137Z,196.88
2022-12-15T11:14:37.581Z,196.88
2022-12-15T11:15:37.615Z,202.50
2022-12-15T11:16:37.527Z,196.88
2022-12-15T11:17:37.507Z,180.00
2022-12-15T11:18:37.494Z,185.63
2022-12-15T11:19:37.468Z,180.00
2022-12-15T11:20:37.447Z,185.63
2022-12-15T11:21:37.428Z,180.00
2022-12-15T11:22:37.407Z,180.00
2022-12-15T11:23:37.391Z,180.00
2022-12-15T11:24:37.367Z,180.00
2022-12-15T11:25:37.353Z,185.63
2022-12-15T11:26:37.348Z,174.38
2022-12-15T11:27:37.314Z,174.38
2022-12-15T11:28:37.293Z,174.38
2022-12-15T11:29:37.296Z,180.00
2022-12-15T11:30:37.249Z,180.00
2022-12-15T11:31:37.237Z,185.63
2022-12-15T11:32:37.212Z,196.88
2022-12-15T11:33:37.199Z,208.13
2022-12-15T11:34:37.175Z,213.75
2022-12-15T11:35:37.157Z,219.38
2022-12-15T11:36:37.134Z,219.38
2022-12-15T11:37:37.228Z,230.63
2022-12-15T11:38:37.122Z,230.63
2022-12-15T11:39:37.071Z,225.00
2022-12-15T11:40:37.051Z,225.00
2022-12-15T11:41:37.033Z,225.00
2022-12-15T11:42:37.010Z,219.38
2022-12-15T11:43:37.199Z,213.75
2022-12-15T11:44:36.971Z,213.75
2022-12-15T11:45:36.990Z,219.38
2022-12-15T11:46:36.934Z,225.00
2022-12-15T11:47:36.908Z,230.63
2022-12-15T11:48:36.894Z,219.38
2022-12-15T11:49:41.114Z,225.00
2022-12-15T11:50:36.859Z,219.38
2022-12-15T11:51:36.836Z,219.38
2022-12-15T11:52:36.815Z,213.75
2022-12-15T11:53:36.836Z,208.13
2022-12-15T11:54:36.773Z,208.13
2022-12-15T11:55:41.289Z,208.13
2022-12-15T11:56:36.734Z,196.88
2022-12-15T11:57:36.719Z,196.88
2022-12-15T11:58:36.751Z,191.25
2022-12-15T11:59:36.680Z,191.25
2022-12-15T12:00:36.666Z,185.63
2022-12-15T12:01:36.725Z,185.63
2022-12-15T12:02:36.770Z,185.63
2022-12-15T12:03:36.614Z,180.00
2022-12-15T12:04:36.583Z,180.00
2022-12-15T12:05:36.565Z,168.75
2022-12-15T12:06:36.548Z,163.13
2022-12-15T12:07:41.787Z,163.13
2022-12-15T12:08:36.587Z,163.13
2022-12-15T12:09:36.491Z,163.13
2022-12-15T12:10:36.469Z,163.13
2022-12-15T12:11:36.697Z,157.50
2022-12-15T12:12:36.430Z,157.50
2022-12-15T12:13:36.408Z,163.13
2022-12-15T12:14:36.392Z,157.50
2022-12-15T12:15:36.373Z,157.50
2022-12-15T12:16:36.352Z,157.50
2022-12-15T12:17:36.368Z,157.50
2022-12-15T12:18:36.539Z,157.50
2022-12-15T12:19:36.321Z,151.88
2022-12-15T12:20:36.277Z,151.88
2022-12-15T12:21:36.255Z,146.25
2022-12-15T12:22:36.238Z,146.25
2022-12-15T12:23:36.217Z,140.63
2022-12-15T12:24:36.198Z,135.00
2022-12-15T12:25:36.187Z,123.75
2022-12-15T12:26:36.168Z,118.13
2022-12-15T12:27:36.145Z,112.50
2022-12-15T12:28:36.290Z,112.50
2022-12-15T12:29:36.099Z,112.50
2022-12-15T12:30:36.083Z,112.50
2022-12-15T12:31:36.068Z,106.88
2022-12-15T12:32:36.043Z,106.88
2022-12-15T12:33:36.043Z,101.25
2022-12-15T12:34:36.007Z,95.63
2022-12-15T12:35:35.984Z,90.00
2022-12-15T12:36:35.961Z,90.00
2022-12-15T12:37:35.941Z,84.38
2022-12-15T12:38:36.218Z,84.38
2022-12-15T12:39:35.898Z,84.38
2022-12-15T12:40:35.879Z,84.38
2022-12-15T12:41:35.859Z,78.75
2022-12-15T12:42:35.834Z,78.75
2022-12-15T12:43:36.323Z,84.38
2022-12-15T12:44:35.792Z,84.38
2022-12-15T12:45:35.770Z,84.38
2022-12-15T12:46:35.748Z,84.38
2022-12-15T12:47:35.727Z,78.75
2022-12-15T12:48:35.706Z,78.75
2022-12-15T12:49:35.708Z,84.38
2022-12-15T12:50:35.664Z,84.38
2022-12-15T12:51:35.640Z,84.38
2022-12-15T12:52:35.627Z,78.75
2022-12-15T12:53:36.162Z,84.38
2022-12-15T12:54:35.597Z,78.75
2022-12-15T12:55:35.623Z,73.13
2022-12-15T12:56:35.529Z,78.75
2022-12-15T12:57:35.510Z,78.75
2022-12-15T12:58:35.486Z,84.38
2022-12-15T12:59:35.470Z,78.75
2022-12-15T13:00:35.567Z,78.75